sensor_id;sensor_type;location;lat;lon;timestamp;temperature;humidity
83146;DHT22;73037;51.110;4.706;2024-01-10T00:01:59;-3.60;56.40
83146;DHT22;73037;51.110;4.706;2024-01-10T00:04:24;-3.60;56.70
83146;DHT22;73037;51.110;4.706;2024-01-10T00:06:50;-3.60;56.20
83146;DHT22;73037;51.110;4.706;2024-01-10T00:09:16;-3.60;56.40
83146;DHT22;73037;51.110;4.706;2024-01-10T00:11:41;-3.60;56.80
83146;DHT22;73037;51.110;4.706;2024-01-10T00:14:07;-3.60;56.40
83146;DHT22;73037;51.110;4.706;2024-01-10T00:16:33;-3.60;56.50
83146;DHT22;73037;51.110;4.706;2024-01-10T00:18:58;-3.60;56.70
83146;DHT22;73037;51.110;4.706;2024-01-10T00:21:24;-3.60;56.80
83146;DHT22;73037;51.110;4.706;2024-01-10T00:23:50;-3.70;57.00
83146;DHT22;73037;51.110;4.706;2024-01-10T00:26:15;-3.70;56.80
83146;DHT22;73037;51.110;4.706;2024-01-10T00:28:42;-3.80;57.30
83146;DHT22;73037;51.110;4.706;2024-01-10T00:31:08;-3.70;56.90
83146;DHT22;73037;51.110;4.706;2024-01-10T00:33:33;-3.80;56.90
83146;DHT22;73037;51.110;4.706;2024-01-10T00:35:59;-3.80;56.80
83146;DHT22;73037;51.110;4.706;2024-01-10T00:38:25;-3.80;57.00
83146;DHT22;73037;51.110;4.706;2024-01-10T00:40:51;-3.80;56.70
83146;DHT22;73037;51.110;4.706;2024-01-10T00:43:16;-3.80;56.90
83146;DHT22;73037;51.110;4.706;2024-01-10T00:45:42;-3.80;57.10
83146;DHT22;73037;51.110;4.706;2024-01-10T00:48:08;-3.80;56.70
83146;DHT22;73037;51.110;4.706;2024-01-10T00:50:34;-3.90;56.90
83146;DHT22;73037;51.110;4.706;2024-01-10T00:52:59;-3.90;57.20
83146;DHT22;73037;51.110;4.706;2024-01-10T00:55:25;-3.90;57.30
83146;DHT22;73037;51.110;4.706;2024-01-10T00:57:50;-3.90;57.30
83146;DHT22;73037;51.110;4.706;2024-01-10T01:00:16;-3.90;57.10
83146;DHT22;73037;51.110;4.706;2024-01-10T01:02:42;-3.80;57.20
83146;DHT22;73037;51.110;4.706;2024-01-10T01:05:08;-3.80;57.40
83146;DHT22;73037;51.110;4.706;2024-01-10T01:07:34;-3.90;57.70
83146;DHT22;73037;51.110;4.706;2024-01-10T01:09:59;-3.90;57.40
83146;DHT22;73037;51.110;4.706;2024-01-10T01:12:25;-3.80;57.40
83146;DHT22;73037;51.110;4.706;2024-01-10T01:14:51;-3.90;57.20
83146;DHT22;73037;51.110;4.706;2024-01-10T01:17:17;-3.90;57.70
83146;DHT22;73037;51.110;4.706;2024-01-10T01:19:42;-3.90;57.00
83146;DHT22;73037;51.110;4.706;2024-01-10T01:22:08;-4.00;57.40
83146;DHT22;73037;51.110;4.706;2024-01-10T01:24:34;-4.00;57.10
83146;DHT22;73037;51.110;4.706;2024-01-10T01:26:59;-4.00;57.20
83146;DHT22;73037;51.110;4.706;2024-01-10T01:29:25;-4.00;57.10
83146;DHT22;73037;51.110;4.706;2024-01-10T01:31:51;-4.00;57.30
83146;DHT22;73037;51.110;4.706;2024-01-10T01:34:18;-4.00;57.20
83146;DHT22;73037;51.110;4.706;2024-01-10T01:36:43;-4.00;57.30
83146;DHT22;73037;51.110;4.706;2024-01-10T01:39:09;-4.00;57.30
83146;DHT22;73037;51.110;4.706;2024-01-10T01:41:34;-4.00;57.20
83146;DHT22;73037;51.110;4.706;2024-01-10T01:44:00;-4.00;56.80
83146;DHT22;73037;51.110;4.706;2024-01-10T01:46:26;-4.00;57.20
83146;DHT22;73037;51.110;4.706;2024-01-10T01:48:52;-4.00;57.40
83146;DHT22;73037;51.110;4.706;2024-01-10T01:51:20;-4.00;57.40
83146;DHT22;73037;51.110;4.706;2024-01-10T01:53:48;-4.00;57.00
83146;DHT22;73037;51.110;4.706;2024-01-10T01:56:15;-4.00;57.40
83146;DHT22;73037;51.110;4.706;2024-01-10T01:58:43;-4.00;57.50
83146;DHT22;73037;51.110;4.706;2024-01-10T02:01:09;-4.00;57.40
83146;DHT22;73037;51.110;4.706;2024-01-10T02:03:36;-4.00;57.40
83146;DHT22;73037;51.110;4.706;2024-01-10T02:06:02;-4.00;57.50
83146;DHT22;73037;51.110;4.706;2024-01-10T02:08:33;-4.00;57.80
83146;DHT22;73037;51.110;4.706;2024-01-10T02:11:00;-4.00;57.60
83146;DHT22;73037;51.110;4.706;2024-01-10T02:13:27;-4.00;57.40
83146;DHT22;73037;51.110;4.706;2024-01-10T02:15:53;-4.00;57.50
83146;DHT22;73037;51.110;4.706;2024-01-10T02:18:19;-4.00;57.20
83146;DHT22;73037;51.110;4.706;2024-01-10T02:20:45;-4.00;57.70
83146;DHT22;73037;51.110;4.706;2024-01-10T02:23:11;-4.10;58.00
83146;DHT22;73037;51.110;4.706;2024-01-10T02:25:41;-4.10;57.60
83146;DHT22;73037;51.110;4.706;2024-01-10T02:28:07;-4.10;57.60
83146;DHT22;73037;51.110;4.706;2024-01-10T02:30:34;-4.10;57.20
83146;DHT22;73037;51.110;4.706;2024-01-10T02:33:00;-4.10;57.80
83146;DHT22;73037;51.110;4.706;2024-01-10T02:35:26;-4.10;57.80
83146;DHT22;73037;51.110;4.706;2024-01-10T02:37:52;-4.10;57.70
83146;DHT22;73037;51.110;4.706;2024-01-10T02:40:20;-4.10;57.60
83146;DHT22;73037;51.110;4.706;2024-01-10T02:42:45;-4.00;57.50
83146;DHT22;73037;51.110;4.706;2024-01-10T02:45:12;-4.00;57.10
83146;DHT22;73037;51.110;4.706;2024-01-10T02:47:37;-4.10;57.10
83146;DHT22;73037;51.110;4.706;2024-01-10T02:50:04;-4.10;57.20
83146;DHT22;73037;51.110;4.706;2024-01-10T02:52:30;-4.10;57.50
83146;DHT22;73037;51.110;4.706;2024-01-10T02:54:56;-4.10;57.10
83146;DHT22;73037;51.110;4.706;2024-01-10T02:57:21;-4.10;57.30
83146;DHT22;73037;51.110;4.706;2024-01-10T02:59:47;-4.20;57.00
83146;DHT22;73037;51.110;4.706;2024-01-10T03:02:13;-4.20;57.10
83146;DHT22;73037;51.110;4.706;2024-01-10T03:04:39;-4.20;57.10
83146;DHT22;73037;51.110;4.706;2024-01-10T03:07:04;-4.20;57.10
83146;DHT22;73037;51.110;4.706;2024-01-10T03:09:30;-4.20;57.30
83146;DHT22;73037;51.110;4.706;2024-01-10T03:11:55;-4.10;57.10
83146;DHT22;73037;51.110;4.706;2024-01-10T03:14:21;-4.10;57.10
83146;DHT22;73037;51.110;4.706;2024-01-10T03:16:47;-4.20;57.20
83146;DHT22;73037;51.110;4.706;2024-01-10T03:19:13;-4.10;57.40
83146;DHT22;73037;51.110;4.706;2024-01-10T03:21:39;-4.10;56.60
83146;DHT22;73037;51.110;4.706;2024-01-10T03:24:05;-4.20;56.70
83146;DHT22;73037;51.110;4.706;2024-01-10T03:26:31;-4.20;57.00
83146;DHT22;73037;51.110;4.706;2024-01-10T03:28:57;-4.20;57.20
83146;DHT22;73037;51.110;4.706;2024-01-10T03:31:23;-4.20;57.30
83146;DHT22;73037;51.110;4.706;2024-01-10T03:33:49;-4.20;57.40
83146;DHT22;73037;51.110;4.706;2024-01-10T03:36:17;-4.20;57.00
83146;DHT22;73037;51.110;4.706;2024-01-10T03:38:43;-4.20;57.20
83146;DHT22;73037;51.110;4.706;2024-01-10T03:41:19;-4.20;57.30
83146;DHT22;73037;51.110;4.706;2024-01-10T03:43:45;-4.20;57.00
83146;DHT22;73037;51.110;4.706;2024-01-10T03:46:11;-4.20;57.00
83146;DHT22;73037;51.110;4.706;2024-01-10T03:48:37;-4.20;57.00
83146;DHT22;73037;51.110;4.706;2024-01-10T03:51:04;-4.30;57.00
83146;DHT22;73037;51.110;4.706;2024-01-10T03:53:30;-4.30;57.20
83146;DHT22;73037;51.110;4.706;2024-01-10T03:55:56;-4.30;57.00
83146;DHT22;73037;51.110;4.706;2024-01-10T03:58:23;-4.30;57.10
83146;DHT22;73037;51.110;4.706;2024-01-10T04:00:48;-4.30;57.00
83146;DHT22;73037;51.110;4.706;2024-01-10T04:03:14;-4.30;56.90
83146;DHT22;73037;51.110;4.706;2024-01-10T04:05:41;-4.30;57.30
83146;DHT22;73037;51.110;4.706;2024-01-10T04:08:07;-4.30;57.00
83146;DHT22;73037;51.110;4.706;2024-01-10T04:10:33;-4.30;56.80
83146;DHT22;73037;51.110;4.706;2024-01-10T04:12:58;-4.30;56.70
83146;DHT22;73037;51.110;4.706;2024-01-10T04:15:24;-4.40;56.70
83146;DHT22;73037;51.110;4.706;2024-01-10T04:17:49;-4.40;57.00
83146;DHT22;73037;51.110;4.706;2024-01-10T04:20:16;-4.40;57.10
83146;DHT22;73037;51.110;4.706;2024-01-10T04:22:41;-4.40;57.20
83146;DHT22;73037;51.110;4.706;2024-01-10T04:25:07;-4.30;56.90
83146;DHT22;73037;51.110;4.706;2024-01-10T04:27:33;-4.30;57.00
83146;DHT22;73037;51.110;4.706;2024-01-10T04:29:59;-4.30;56.80
83146;DHT22;73037;51.110;4.706;2024-01-10T04:32:25;-4.30;56.90
83146;DHT22;73037;51.110;4.706;2024-01-10T04:34:51;-4.20;56.80
83146;DHT22;73037;51.110;4.706;2024-01-10T04:37:17;-4.30;56.90
83146;DHT22;73037;51.110;4.706;2024-01-10T04:39:43;-4.30;56.80
83146;DHT22;73037;51.110;4.706;2024-01-10T04:42:10;-4.40;57.20
83146;DHT22;73037;51.110;4.706;2024-01-10T04:44:36;-4.40;57.30
83146;DHT22;73037;51.110;4.706;2024-01-10T04:47:03;-4.50;57.40
83146;DHT22;73037;51.110;4.706;2024-01-10T04:49:28;-4.60;57.30
83146;DHT22;73037;51.110;4.706;2024-01-10T04:51:54;-4.60;57.50
83146;DHT22;73037;51.110;4.706;2024-01-10T04:54:20;-4.50;57.70
83146;DHT22;73037;51.110;4.706;2024-01-10T04:56:46;-4.50;57.80
83146;DHT22;73037;51.110;4.706;2024-01-10T04:59:12;-4.50;57.60
83146;DHT22;73037;51.110;4.706;2024-01-10T05:01:37;-4.50;57.50
83146;DHT22;73037;51.110;4.706;2024-01-10T05:04:03;-4.60;57.90
83146;DHT22;73037;51.110;4.706;2024-01-10T05:06:29;-4.50;57.70
83146;DHT22;73037;51.110;4.706;2024-01-10T05:08:55;-4.60;57.80
83146;DHT22;73037;51.110;4.706;2024-01-10T05:11:24;-4.60;57.90
83146;DHT22;73037;51.110;4.706;2024-01-10T05:13:51;-4.60;57.90
83146;DHT22;73037;51.110;4.706;2024-01-10T05:16:17;-4.60;57.80
83146;DHT22;73037;51.110;4.706;2024-01-10T05:18:43;-4.60;58.20
83146;DHT22;73037;51.110;4.706;2024-01-10T05:21:09;-4.60;58.20
83146;DHT22;73037;51.110;4.706;2024-01-10T05:23:34;-4.60;58.00
83146;DHT22;73037;51.110;4.706;2024-01-10T05:26:01;-4.60;58.00
83146;DHT22;73037;51.110;4.706;2024-01-10T05:28:26;-4.60;58.50
83146;DHT22;73037;51.110;4.706;2024-01-10T05:30:59;-4.60;58.10
83146;DHT22;73037;51.110;4.706;2024-01-10T05:33:24;-4.60;58.30
83146;DHT22;73037;51.110;4.706;2024-01-10T05:35:51;-4.60;58.50
83146;DHT22;73037;51.110;4.706;2024-01-10T05:38:17;-4.70;58.40
83146;DHT22;73037;51.110;4.706;2024-01-10T05:40:43;-4.70;58.40
83146;DHT22;73037;51.110;4.706;2024-01-10T05:43:08;-4.70;58.50
83146;DHT22;73037;51.110;4.706;2024-01-10T05:45:38;-4.80;58.80
83146;DHT22;73037;51.110;4.706;2024-01-10T05:48:04;-4.70;58.60
83146;DHT22;73037;51.110;4.706;2024-01-10T05:50:30;-4.60;58.80
83146;DHT22;73037;51.110;4.706;2024-01-10T05:52:55;-4.60;58.50
83146;DHT22;73037;51.110;4.706;2024-01-10T05:55:21;-4.70;58.60
83146;DHT22;73037;51.110;4.706;2024-01-10T05:57:49;-4.80;58.70
83146;DHT22;73037;51.110;4.706;2024-01-10T06:00:15;-4.80;58.90
83146;DHT22;73037;51.110;4.706;2024-01-10T06:02:42;-4.80;58.90
83146;DHT22;73037;51.110;4.706;2024-01-10T06:05:09;-4.80;58.90
83146;DHT22;73037;51.110;4.706;2024-01-10T06:07:36;-4.80;59.10
83146;DHT22;73037;51.110;4.706;2024-01-10T06:10:02;-4.80;59.00
83146;DHT22;73037;51.110;4.706;2024-01-10T06:12:28;-4.80;58.90
83146;DHT22;73037;51.110;4.706;2024-01-10T06:14:54;-4.80;59.10
83146;DHT22;73037;51.110;4.706;2024-01-10T06:17:20;-4.80;59.20
83146;DHT22;73037;51.110;4.706;2024-01-10T06:19:45;-4.80;59.30
83146;DHT22;73037;51.110;4.706;2024-01-10T06:22:11;-4.90;59.40
83146;DHT22;73037;51.110;4.706;2024-01-10T06:24:37;-4.90;59.50
83146;DHT22;73037;51.110;4.706;2024-01-10T06:27:03;-4.90;59.60
83146;DHT22;73037;51.110;4.706;2024-01-10T06:29:30;-4.90;59.40
83146;DHT22;73037;51.110;4.706;2024-01-10T06:31:55;-4.90;59.50
83146;DHT22;73037;51.110;4.706;2024-01-10T06:34:22;-4.90;59.60
83146;DHT22;73037;51.110;4.706;2024-01-10T06:36:48;-4.90;59.60
83146;DHT22;73037;51.110;4.706;2024-01-10T06:39:14;-4.90;59.60
83146;DHT22;73037;51.110;4.706;2024-01-10T06:41:41;-4.90;59.60
83146;DHT22;73037;51.110;4.706;2024-01-10T06:44:08;-4.90;59.80
83146;DHT22;73037;51.110;4.706;2024-01-10T06:46:34;-4.90;59.70
83146;DHT22;73037;51.110;4.706;2024-01-10T06:49:00;-4.90;59.80
83146;DHT22;73037;51.110;4.706;2024-01-10T06:51:26;-4.90;59.70
83146;DHT22;73037;51.110;4.706;2024-01-10T06:53:54;-4.90;60.00
83146;DHT22;73037;51.110;4.706;2024-01-10T06:56:28;-4.90;59.90
83146;DHT22;73037;51.110;4.706;2024-01-10T06:58:53;-4.90;59.60
83146;DHT22;73037;51.110;4.706;2024-01-10T07:01:20;-4.90;59.90
83146;DHT22;73037;51.110;4.706;2024-01-10T07:03:48;-4.90;60.30
83146;DHT22;73037;51.110;4.706;2024-01-10T07:06:14;-4.90;59.90
83146;DHT22;73037;51.110;4.706;2024-01-10T07:08:43;-4.90;59.90
83146;DHT22;73037;51.110;4.706;2024-01-10T07:11:10;-4.90;59.80
83146;DHT22;73037;51.110;4.706;2024-01-10T07:13:36;-4.90;59.70
83146;DHT22;73037;51.110;4.706;2024-01-10T07:16:02;-4.90;59.80
83146;DHT22;73037;51.110;4.706;2024-01-10T07:18:29;-5.00;59.80
83146;DHT22;73037;51.110;4.706;2024-01-10T07:20:54;-4.90;60.00
83146;DHT22;73037;51.110;4.706;2024-01-10T07:23:20;-4.90;60.10
83146;DHT22;73037;51.110;4.706;2024-01-10T07:25:46;-4.90;59.90
83146;DHT22;73037;51.110;4.706;2024-01-10T07:28:12;-4.90;60.00
83146;DHT22;73037;51.110;4.706;2024-01-10T07:30:37;-4.80;59.70
83146;DHT22;73037;51.110;4.706;2024-01-10T07:33:03;-4.80;59.80
83146;DHT22;73037;51.110;4.706;2024-01-10T07:35:29;-4.80;59.70
83146;DHT22;73037;51.110;4.706;2024-01-10T07:37:55;-4.80;59.80
83146;DHT22;73037;51.110;4.706;2024-01-10T07:40:21;-4.80;59.70
83146;DHT22;73037;51.110;4.706;2024-01-10T07:42:48;-4.90;60.00
83146;DHT22;73037;51.110;4.706;2024-01-10T07:45:13;-4.90;60.00
83146;DHT22;73037;51.110;4.706;2024-01-10T07:47:39;-4.80;59.90
83146;DHT22;73037;51.110;4.706;2024-01-10T07:50:10;-4.80;59.80
83146;DHT22;73037;51.110;4.706;2024-01-10T07:52:36;-4.90;60.00
83146;DHT22;73037;51.110;4.706;2024-01-10T07:55:02;-4.90;60.00
83146;DHT22;73037;51.110;4.706;2024-01-10T07:57:30;-4.90;60.30
83146;DHT22;73037;51.110;4.706;2024-01-10T07:59:56;-4.90;60.00
83146;DHT22;73037;51.110;4.706;2024-01-10T08:02:22;-4.90;60.10
83146;DHT22;73037;51.110;4.706;2024-01-10T08:04:48;-4.90;60.40
83146;DHT22;73037;51.110;4.706;2024-01-10T08:07:14;-5.00;60.40
83146;DHT22;73037;51.110;4.706;2024-01-10T08:09:39;-4.90;60.50
83146;DHT22;73037;51.110;4.706;2024-01-10T08:12:05;-4.90;60.20
83146;DHT22;73037;51.110;4.706;2024-01-10T08:14:31;-4.80;60.60
83146;DHT22;73037;51.110;4.706;2024-01-10T08:16:57;-4.80;60.40
83146;DHT22;73037;51.110;4.706;2024-01-10T08:19:29;-4.80;60.60
83146;DHT22;73037;51.110;4.706;2024-01-10T08:21:55;-4.80;60.40
83146;DHT22;73037;51.110;4.706;2024-01-10T08:24:21;-4.80;60.70
83146;DHT22;73037;51.110;4.706;2024-01-10T08:26:47;-4.90;60.40
83146;DHT22;73037;51.110;4.706;2024-01-10T08:29:18;-4.80;60.90
83146;DHT22;73037;51.110;4.706;2024-01-10T08:31:44;-4.80;60.70
83146;DHT22;73037;51.110;4.706;2024-01-10T08:34:10;-4.80;60.70
83146;DHT22;73037;51.110;4.706;2024-01-10T08:36:36;-4.80;60.70
83146;DHT22;73037;51.110;4.706;2024-01-10T08:39:02;-4.80;60.60
83146;DHT22;73037;51.110;4.706;2024-01-10T08:41:29;-4.80;60.70
83146;DHT22;73037;51.110;4.706;2024-01-10T08:43:55;-4.60;60.90
83146;DHT22;73037;51.110;4.706;2024-01-10T08:46:21;-4.60;60.70
83146;DHT22;73037;51.110;4.706;2024-01-10T08:48:47;-4.60;60.30
83146;DHT22;73037;51.110;4.706;2024-01-10T08:51:13;-4.60;60.60
83146;DHT22;73037;51.110;4.706;2024-01-10T08:53:42;-4.40;60.40
83146;DHT22;73037;51.110;4.706;2024-01-10T08:56:08;-4.40;60.40
83146;DHT22;73037;51.110;4.706;2024-01-10T08:58:34;-4.30;60.40
83146;DHT22;73037;51.110;4.706;2024-01-10T09:01:00;-4.30;60.00
83146;DHT22;73037;51.110;4.706;2024-01-10T09:03:25;-4.30;60.10
83146;DHT22;73037;51.110;4.706;2024-01-10T09:05:51;-4.30;59.70
83146;DHT22;73037;51.110;4.706;2024-01-10T09:08:16;-4.20;60.70
83146;DHT22;73037;51.110;4.706;2024-01-10T09:10:42;-4.10;60.00
83146;DHT22;73037;51.110;4.706;2024-01-10T09:13:08;-4.10;59.80
83146;DHT22;73037;51.110;4.706;2024-01-10T09:15:34;-4.10;59.70
83146;DHT22;73037;51.110;4.706;2024-01-10T09:18:00;-4.10;58.90
83146;DHT22;73037;51.110;4.706;2024-01-10T09:20:25;-4.10;59.40
83146;DHT22;73037;51.110;4.706;2024-01-10T09:22:51;-4.10;59.50
83146;DHT22;73037;51.110;4.706;2024-01-10T09:25:17;-4.10;58.90
83146;DHT22;73037;51.110;4.706;2024-01-10T09:27:43;-4.10;59.50
83146;DHT22;73037;51.110;4.706;2024-01-10T09:30:10;-4.00;59.70
83146;DHT22;73037;51.110;4.706;2024-01-10T09:32:36;-4.00;59.60
83146;DHT22;73037;51.110;4.706;2024-01-10T09:35:03;-3.90;59.30
83146;DHT22;73037;51.110;4.706;2024-01-10T09:37:29;-3.80;59.30
83146;DHT22;73037;51.110;4.706;2024-01-10T09:39:55;-3.80;58.70
83146;DHT22;73037;51.110;4.706;2024-01-10T09:42:21;-3.80;58.40
83146;DHT22;73037;51.110;4.706;2024-01-10T09:44:51;-3.80;58.20
83146;DHT22;73037;51.110;4.706;2024-01-10T09:47:19;-3.60;58.80
83146;DHT22;73037;51.110;4.706;2024-01-10T09:49:45;-3.60;58.20
83146;DHT22;73037;51.110;4.706;2024-01-10T09:52:26;-3.60;58.50
83146;DHT22;73037;51.110;4.706;2024-01-10T09:54:56;-3.60;58.60
83146;DHT22;73037;51.110;4.706;2024-01-10T09:57:23;-3.50;58.50
83146;DHT22;73037;51.110;4.706;2024-01-10T09:59:50;-3.50;58.10
83146;DHT22;73037;51.110;4.706;2024-01-10T10:02:17;-3.40;58.30
83146;DHT22;73037;51.110;4.706;2024-01-10T10:07:16;-3.30;58.20
83146;DHT22;73037;51.110;4.706;2024-01-10T10:09:42;-3.20;58.10
83146;DHT22;73037;51.110;4.706;2024-01-10T10:12:08;-3.20;57.60
83146;DHT22;73037;51.110;4.706;2024-01-10T10:14:34;-3.10;58.20
83146;DHT22;73037;51.110;4.706;2024-01-10T10:17:16;-3.10;57.60
83146;DHT22;73037;51.110;4.706;2024-01-10T10:19:43;-3.00;57.50
83146;DHT22;73037;51.110;4.706;2024-01-10T10:22:10;-2.90;57.80
83146;DHT22;73037;51.110;4.706;2024-01-10T10:24:37;-2.80;57.20
83146;DHT22;73037;51.110;4.706;2024-01-10T10:27:08;-2.80;56.80
83146;DHT22;73037;51.110;4.706;2024-01-10T10:29:37;-2.80;57.30
83146;DHT22;73037;51.110;4.706;2024-01-10T10:32:03;-2.70;57.20
83146;DHT22;73037;51.110;4.706;2024-01-10T10:34:33;-2.60;56.80
83146;DHT22;73037;51.110;4.706;2024-01-10T10:36:59;-2.60;56.50
83146;DHT22;73037;51.110;4.706;2024-01-10T10:39:25;-2.60;56.50
83146;DHT22;73037;51.110;4.706;2024-01-10T10:41:51;-2.60;56.70
83146;DHT22;73037;51.110;4.706;2024-01-10T10:44:24;-2.50;57.00
83146;DHT22;73037;51.110;4.706;2024-01-10T10:46:53;-2.40;56.70
83146;DHT22;73037;51.110;4.706;2024-01-10T10:49:28;-2.40;56.20
83146;DHT22;73037;51.110;4.706;2024-01-10T10:51:57;-2.40;55.80
83146;DHT22;73037;51.110;4.706;2024-01-10T10:54:25;-2.30;56.40
83146;DHT22;73037;51.110;4.706;2024-01-10T10:56:50;-2.30;55.50
83146;DHT22;73037;51.110;4.706;2024-01-10T10:59:19;-2.20;55.60
83146;DHT22;73037;51.110;4.706;2024-01-10T11:01:46;-2.20;55.00
83146;DHT22;73037;51.110;4.706;2024-01-10T11:04:13;-2.10;54.80
83146;DHT22;73037;51.110;4.706;2024-01-10T11:06:40;-2.10;54.60
83146;DHT22;73037;51.110;4.706;2024-01-10T11:09:08;-2.00;54.20
83146;DHT22;73037;51.110;4.706;2024-01-10T11:15:01;-1.80;54.20
83146;DHT22;73037;51.110;4.706;2024-01-10T11:23:49;-1.60;53.60
83146;DHT22;73037;51.110;4.706;2024-01-10T11:26:16;-1.60;54.20
83146;DHT22;73037;51.110;4.706;2024-01-10T11:28:43;-1.50;53.40
83146;DHT22;73037;51.110;4.706;2024-01-10T11:31:09;-1.50;53.10
83146;DHT22;73037;51.110;4.706;2024-01-10T11:33:39;-1.50;52.70
83146;DHT22;73037;51.110;4.706;2024-01-10T11:36:07;-1.50;52.50
83146;DHT22;73037;51.110;4.706;2024-01-10T11:38:49;-1.40;52.40
83146;DHT22;73037;51.110;4.706;2024-01-10T11:41:26;-1.40;51.50
83146;DHT22;73037;51.110;4.706;2024-01-10T11:44:27;-1.40;52.60
83146;DHT22;73037;51.110;4.706;2024-01-10T11:46:54;-1.30;52.20
83146;DHT22;73037;51.110;4.706;2024-01-10T11:49:21;-1.30;52.50
83146;DHT22;73037;51.110;4.706;2024-01-10T11:51:53;-1.10;52.80
83146;DHT22;73037;51.110;4.706;2024-01-10T11:54:44;-1.10;53.10
83146;DHT22;73037;51.110;4.706;2024-01-10T11:57:20;-1.10;52.50
83146;DHT22;73037;51.110;4.706;2024-01-10T11:59:56;-1.10;52.30
83146;DHT22;73037;51.110;4.706;2024-01-10T12:02:25;-1.00;51.80
83146;DHT22;73037;51.110;4.706;2024-01-10T12:04:52;-1.00;52.50
83146;DHT22;73037;51.110;4.706;2024-01-10T12:07:18;-1.00;52.40
83146;DHT22;73037;51.110;4.706;2024-01-10T12:09:45;-0.90;51.80
83146;DHT22;73037;51.110;4.706;2024-01-10T12:12:12;-0.90;51.60
83146;DHT22;73037;51.110;4.706;2024-01-10T12:14:39;-0.90;51.60
83146;DHT22;73037;51.110;4.706;2024-01-10T12:17:05;-0.80;51.50
83146;DHT22;73037;51.110;4.706;2024-01-10T12:19:34;-0.80;51.40
83146;DHT22;73037;51.110;4.706;2024-01-10T12:22:00;-0.80;51.30
83146;DHT22;73037;51.110;4.706;2024-01-10T12:24:27;-0.80;51.20
83146;DHT22;73037;51.110;4.706;2024-01-10T12:26:55;-0.70;51.70
83146;DHT22;73037;51.110;4.706;2024-01-10T12:29:21;-0.70;51.20
83146;DHT22;73037;51.110;4.706;2024-01-10T12:31:48;-0.70;51.40
83146;DHT22;73037;51.110;4.706;2024-01-10T12:34:14;-0.70;50.70
83146;DHT22;73037;51.110;4.706;2024-01-10T12:36:43;-0.70;51.10
83146;DHT22;73037;51.110;4.706;2024-01-10T12:39:10;-0.70;50.50
83146;DHT22;73037;51.110;4.706;2024-01-10T12:41:37;-0.70;51.10
83146;DHT22;73037;51.110;4.706;2024-01-10T12:44:04;-0.70;51.00
83146;DHT22;73037;51.110;4.706;2024-01-10T12:46:31;-0.70;51.50
83146;DHT22;73037;51.110;4.706;2024-01-10T12:49:07;-0.60;51.20
83146;DHT22;73037;51.110;4.706;2024-01-10T12:51:34;-0.60;51.10
83146;DHT22;73037;51.110;4.706;2024-01-10T12:54:02;-0.60;51.60
83146;DHT22;73037;51.110;4.706;2024-01-10T12:56:29;-0.50;51.40
83146;DHT22;73037;51.110;4.706;2024-01-10T12:58:55;-0.40;51.60
83146;DHT22;73037;51.110;4.706;2024-01-10T13:01:22;-0.40;51.80
83146;DHT22;73037;51.110;4.706;2024-01-10T13:03:47;-0.40;51.50
83146;DHT22;73037;51.110;4.706;2024-01-10T13:06:14;-0.40;51.80
83146;DHT22;73037;51.110;4.706;2024-01-10T13:08:40;-0.50;51.40
83146;DHT22;73037;51.110;4.706;2024-01-10T13:11:06;-0.50;52.00
83146;DHT22;73037;51.110;4.706;2024-01-10T13:13:35;-0.50;51.70
83146;DHT22;73037;51.110;4.706;2024-01-10T13:16:01;-0.40;52.10
83146;DHT22;73037;51.110;4.706;2024-01-10T13:18:27;-0.40;52.20
83146;DHT22;73037;51.110;4.706;2024-01-10T13:20:54;-0.40;51.60
83146;DHT22;73037;51.110;4.706;2024-01-10T13:23:20;-0.40;51.60
83146;DHT22;73037;51.110;4.706;2024-01-10T13:25:47;-0.40;52.20
83146;DHT22;73037;51.110;4.706;2024-01-10T13:28:14;-0.40;51.90
83146;DHT22;73037;51.110;4.706;2024-01-10T13:30:41;-0.40;52.10
83146;DHT22;73037;51.110;4.706;2024-01-10T13:33:07;-0.40;51.50
83146;DHT22;73037;51.110;4.706;2024-01-10T13:35:35;-0.40;51.60
83146;DHT22;73037;51.110;4.706;2024-01-10T13:38:00;-0.40;52.00
83146;DHT22;73037;51.110;4.706;2024-01-10T13:40:26;-0.30;51.40
83146;DHT22;73037;51.110;4.706;2024-01-10T13:42:52;-0.30;51.50
83146;DHT22;73037;51.110;4.706;2024-01-10T13:45:18;-0.30;51.60
83146;DHT22;73037;51.110;4.706;2024-01-10T13:47:44;-0.30;51.50
83146;DHT22;73037;51.110;4.706;2024-01-10T13:50:10;-0.20;50.90
83146;DHT22;73037;51.110;4.706;2024-01-10T13:52:36;-0.30;51.40
83146;DHT22;73037;51.110;4.706;2024-01-10T13:55:02;-0.20;50.90
83146;DHT22;73037;51.110;4.706;2024-01-10T13:57:30;-0.20;50.80
83146;DHT22;73037;51.110;4.706;2024-01-10T13:59:58;-0.20;50.90
83146;DHT22;73037;51.110;4.706;2024-01-10T14:02:24;-0.20;51.20
83146;DHT22;73037;51.110;4.706;2024-01-10T14:04:50;-0.20;50.90
83146;DHT22;73037;51.110;4.706;2024-01-10T14:07:16;-0.10;51.10
83146;DHT22;73037;51.110;4.706;2024-01-10T14:09:42;-0.10;51.40
83146;DHT22;73037;51.110;4.706;2024-01-10T14:12:08;-0.10;50.70
83146;DHT22;73037;51.110;4.706;2024-01-10T14:14:34;-0.10;51.30
83146;DHT22;73037;51.110;4.706;2024-01-10T14:17:00;-0.10;51.30
83146;DHT22;73037;51.110;4.706;2024-01-10T14:19:26;-0.10;51.20
83146;DHT22;73037;51.110;4.706;2024-01-10T14:21:52;-0.10;51.30
83146;DHT22;73037;51.110;4.706;2024-01-10T14:24:18;-0.10;51.10
83146;DHT22;73037;51.110;4.706;2024-01-10T14:26:43;-0.10;50.90
83146;DHT22;73037;51.110;4.706;2024-01-10T14:29:09;-0.10;51.20
83146;DHT22;73037;51.110;4.706;2024-01-10T14:31:36;-0.10;51.60
83146;DHT22;73037;51.110;4.706;2024-01-10T14:34:02;-0.10;51.20
83146;DHT22;73037;51.110;4.706;2024-01-10T14:36:28;-0.10;50.70
83146;DHT22;73037;51.110;4.706;2024-01-10T14:38:54;-0.10;50.80
83146;DHT22;73037;51.110;4.706;2024-01-10T14:41:21;-0.10;50.70
83146;DHT22;73037;51.110;4.706;2024-01-10T14:43:46;0.00;50.70
83146;DHT22;73037;51.110;4.706;2024-01-10T14:46:12;0.00;50.60
83146;DHT22;73037;51.110;4.706;2024-01-10T14:48:38;0.00;50.50
83146;DHT22;73037;51.110;4.706;2024-01-10T14:51:04;0.00;50.80
83146;DHT22;73037;51.110;4.706;2024-01-10T14:53:30;0.00;51.20
83146;DHT22;73037;51.110;4.706;2024-01-10T14:55:56;0.00;51.20
83146;DHT22;73037;51.110;4.706;2024-01-10T14:58:21;0.00;51.20
83146;DHT22;73037;51.110;4.706;2024-01-10T15:00:47;0.10;50.50
83146;DHT22;73037;51.110;4.706;2024-01-10T15:03:13;0.20;51.00
83146;DHT22;73037;51.110;4.706;2024-01-10T15:05:41;0.10;50.70
83146;DHT22;73037;51.110;4.706;2024-01-10T15:08:07;0.00;50.90
83146;DHT22;73037;51.110;4.706;2024-01-10T15:10:35;0.00;50.70
83146;DHT22;73037;51.110;4.706;2024-01-10T15:13:01;0.00;51.20
83146;DHT22;73037;51.110;4.706;2024-01-10T15:15:27;0.00;50.70
83146;DHT22;73037;51.110;4.706;2024-01-10T15:17:52;0.00;50.90
83146;DHT22;73037;51.110;4.706;2024-01-10T15:20:18;0.00;51.20
83146;DHT22;73037;51.110;4.706;2024-01-10T15:22:44;-0.10;51.20
83146;DHT22;73037;51.110;4.706;2024-01-10T15:25:09;0.00;51.80
83146;DHT22;73037;51.110;4.706;2024-01-10T15:27:36;-0.10;51.60
83146;DHT22;73037;51.110;4.706;2024-01-10T15:30:02;-0.10;51.70
83146;DHT22;73037;51.110;4.706;2024-01-10T15:32:31;-0.10;51.50
83146;DHT22;73037;51.110;4.706;2024-01-10T15:34:56;-0.10;52.00
83146;DHT22;73037;51.110;4.706;2024-01-10T15:37:23;-0.10;52.30
83146;DHT22;73037;51.110;4.706;2024-01-10T15:39:49;-0.20;52.10
83146;DHT22;73037;51.110;4.706;2024-01-10T15:42:15;-0.20;52.50